Addison, Maine
Current Conditions -  °F | °C
As of 8:15 AM on Thursday 23 Oct 2014 (Local Time) from KBHB Reporting Station
Overcast Overcast  
Wind Chill: 52°   Ceiling: 1000
Heat Index: 52°   Visibility: 7mi
Dew Point: 52°   Wind: 17mph
Humidity: 100%   Direction: 50°NE
Pressure: 29.89"   Gusts: 29mph
Location:  44.62°N, 67.74°W
Report Text: KBHB 231215Z AUTO 05015G25KT 7SM OVC010 11/11 A2989 RMK AO1 P0003
Loading
Personal Weather Stations






























Interactive Weather Map
Tropical Storm Tracking
New forecast layout! Learn more

10-Day Weather Forecast

Advertisements
Track Severe Weather on mobile